aviador You're here:

UKDR Decoded Metar

KRIVYY RIH in UKRAINE
Report Time2018-01-16 21:00:00
UTC Time2018-01-16 21:16:46
Flight Rules ifr IFR
Wind110° at 10 kt
W.Decomp.*RWY 18: 2.8 kt HW 9.6 kt LCW
W.Rank110° ranks 28
Current wind is above 110° avg. (8.1)
Visibility3700 m
Phenomena:Blowing Snow
Shower Snow
Light Snow
Clouds:Broken 004 Hf
Overcast 011 Hf
Expected CloudBase > 800 ft AGL from Temp-Dew spread
Ceiling1,100 ft
Temp-5°C (ISA -19)
Dew Point-7°C (86% RH)
AAT-11.4°C
QNH1010 hPa
Density Alt-1,808 ft
Elevation407 ft
Report Wrong Elevation
Raw Report
UKDR 162100Z 11005MPS 080V160 3700 -SN BLSN OVC011 M05/M07 Q1010
R36/593023 BECMG 12007G12MPS 1000 SHSN BLSN BKN004
BKN015CB=

Extra information for UKDR:More info

Metar Taf Metar & Taf Last 4 Metars F.Rules Stats Wind Profile Meteogram Temp Stats Airport Information Weather charts Add Link Nearby VenuesMetar ALERT Operation Metar Decoded Social comments